sensor_id;sensor_type;location;lat;lon;timestamp;pressure;altitude;pressure_sealevel;temperature;humidity
5126;BME280;63008;53.112;8.896;2023-03-13T00:01:46;100219.34;;;8.02;97.28
5126;BME280;63008;53.112;8.896;2023-03-13T00:03:48;100210.94;;;8.07;96.66
5126;BME280;63008;53.112;8.896;2023-03-13T00:05:54;100210.75;;;8.12;96.73
5126;BME280;63008;53.112;8.896;2023-03-13T00:07:55;100206.72;;;8.10;96.80
5126;BME280;63008;53.112;8.896;2023-03-13T00:09:57;100200.47;;;8.09;96.56
5126;BME280;63008;53.112;8.896;2023-03-13T00:11:58;100193.06;;;8.10;96.74
5126;BME280;63008;53.112;8.896;2023-03-13T00:14:01;100192.75;;;8.11;96.75
5126;BME280;63008;53.112;8.896;2023-03-13T00:16:07;100190.94;;;8.15;96.48
5126;BME280;63008;53.112;8.896;2023-03-13T00:18:08;100191.75;;;8.16;96.59
5126;BME280;63008;53.112;8.896;2023-03-13T00:20:10;100181.97;;;8.15;96.52
5126;BME280;63008;53.112;8.896;2023-03-13T00:22:11;100180.84;;;8.16;96.60
5126;BME280;63008;53.112;8.896;2023-03-13T00:24:12;100178.09;;;8.16;96.63
5126;BME280;63008;53.112;8.896;2023-03-13T00:26:18;100166.22;;;8.20;96.18
5126;BME280;63008;53.112;8.896;2023-03-13T00:28:19;100170.41;;;8.18;96.36
5126;BME280;63008;53.112;8.896;2023-03-13T00:30:20;100161.34;;;8.17;96.63
5126;BME280;63008;53.112;8.896;2023-03-13T00:32:21;100163.81;;;8.19;96.47
5126;BME280;63008;53.112;8.896;2023-03-13T00:34:22;100159.47;;;8.18;96.50
5126;BME280;63008;53.112;8.896;2023-03-13T00:36:28;100157.34;;;8.23;96.01
5126;BME280;63008;53.112;8.896;2023-03-13T00:38:30;100159.63;;;8.21;96.22
5126;BME280;63008;53.112;8.896;2023-03-13T00:40:31;100156.53;;;8.23;96.17
5126;BME280;63008;53.112;8.896;2023-03-13T00:42:32;100153.34;;;8.21;96.12
5126;BME280;63008;53.112;8.896;2023-03-13T00:44:33;100147.53;;;8.22;95.98
5126;BME280;63008;53.112;8.896;2023-03-13T00:46:34;100148.78;;;8.25;96.08
5126;BME280;63008;53.112;8.896;2023-03-13T00:48:36;100151.53;;;8.25;95.77
5126;BME280;63008;53.112;8.896;2023-03-13T00:50:37;100147.47;;;8.31;95.25
5126;BME280;63008;53.112;8.896;2023-03-13T00:52:37;100145.88;;;8.30;95.37
5126;BME280;63008;53.112;8.896;2023-03-13T00:54:39;100134.13;;;8.29;95.41
5126;BME280;63008;53.112;8.896;2023-03-13T00:56:40;100138.81;;;8.29;95.77
5126;BME280;63008;53.112;8.896;2023-03-13T00:58:42;100124.34;;;8.28;95.69
5126;BME280;63008;53.112;8.896;2023-03-13T01:00:43;100119.69;;;8.29;95.41
5126;BME280;63008;53.112;8.896;2023-03-13T01:02:44;100119.19;;;8.27;95.52
5126;BME280;63008;53.112;8.896;2023-03-13T01:04:45;100117.06;;;8.32;95.27
5126;BME280;63008;53.112;8.896;2023-03-13T01:06:46;100123.22;;;8.29;95.43
5126;BME280;63008;53.112;8.896;2023-03-13T01:08:47;100113.09;;;8.30;95.43
5126;BME280;63008;53.112;8.896;2023-03-13T01:10:48;100114.00;;;8.34;94.99
5126;BME280;63008;53.112;8.896;2023-03-13T01:12:49;100107.72;;;8.33;95.15
5126;BME280;63008;53.112;8.896;2023-03-13T01:14:50;100098.06;;;8.36;94.97
5126;BME280;63008;53.112;8.896;2023-03-13T01:16:51;100095.13;;;8.41;94.65
5126;BME280;63008;53.112;8.896;2023-03-13T01:18:54;100095.34;;;8.36;94.95
5126;BME280;63008;53.112;8.896;2023-03-13T01:20:56;100087.81;;;8.33;95.39
5126;BME280;63008;53.112;8.896;2023-03-13T01:22:57;100082.00;;;8.34;95.58
5126;BME280;63008;53.112;8.896;2023-03-13T01:24:58;100074.94;;;8.33;95.61
5126;BME280;63008;53.112;8.896;2023-03-13T01:26:59;100066.72;;;8.33;95.60
5126;BME280;63008;53.112;8.896;2023-03-13T01:29:00;100063.88;;;8.30;95.96
5126;BME280;63008;53.112;8.896;2023-03-13T01:33:11;100059.88;;;8.27;96.71
5126;BME280;63008;53.112;8.896;2023-03-13T01:35:12;100050.09;;;8.26;97.14
5126;BME280;63008;53.112;8.896;2023-03-13T01:37:13;100043.69;;;8.22;97.58
5126;BME280;63008;53.112;8.896;2023-03-13T01:39:15;100035.81;;;8.21;97.75
5126;BME280;63008;53.112;8.896;2023-03-13T01:41:17;100029.91;;;8.19;98.17
5126;BME280;63008;53.112;8.896;2023-03-13T01:43:27;100029.91;;;8.19;98.65
5126;BME280;63008;53.112;8.896;2023-03-13T01:45:55;100024.72;;;8.17;98.82
5126;BME280;63008;53.112;8.896;2023-03-13T01:47:57;100019.78;;;8.19;99.04
5126;BME280;63008;53.112;8.896;2023-03-13T01:49:58;100003.72;;;8.18;99.18
5126;BME280;63008;53.112;8.896;2023-03-13T01:52:19;99994.56;;;8.14;99.74
5126;BME280;63008;53.112;8.896;2023-03-13T01:54:24;100002.56;;;8.19;99.56
5126;BME280;63008;53.112;8.896;2023-03-13T01:56:47;99989.56;;;8.16;99.83
5126;BME280;63008;53.112;8.896;2023-03-13T01:58:51;99978.94;;;8.14;100.00
5126;BME280;63008;53.112;8.896;2023-03-13T02:00:53;99974.91;;;8.20;99.77
5126;BME280;63008;53.112;8.896;2023-03-13T02:02:55;99969.28;;;8.17;100.00
5126;BME280;63008;53.112;8.896;2023-03-13T02:05:00;99965.75;;;8.16;100.00
5126;BME280;63008;53.112;8.896;2023-03-13T02:07:06;99954.81;;;8.16;100.00
5126;BME280;63008;53.112;8.896;2023-03-13T02:09:13;99953.22;;;8.15;100.00
5126;BME280;63008;53.112;8.896;2023-03-13T02:11:24;99949.34;;;8.16;100.00
5126;BME280;63008;53.112;8.896;2023-03-13T02:13:27;99937.44;;;8.21;100.00
5126;BME280;63008;53.112;8.896;2023-03-13T02:15:29;99927.31;;;8.21;100.00
5126;BME280;63008;53.112;8.896;2023-03-13T02:17:32;99928.47;;;8.20;100.00
5126;BME280;63008;53.112;8.896;2023-03-13T02:19:41;99920.50;;;8.27;100.00
5126;BME280;63008;53.112;8.896;2023-03-13T02:21:49;99917.63;;;8.24;100.00
5126;BME280;63008;53.112;8.896;2023-03-13T02:24:02;99916.03;;;8.23;100.00
5126;BME280;63008;53.112;8.896;2023-03-13T02:26:08;99910.13;;;8.21;100.00
5126;BME280;63008;53.112;8.896;2023-03-13T02:28:16;99905.78;;;8.20;100.00
5126;BME280;63008;53.112;8.896;2023-03-13T02:30:18;99898.25;;;8.17;100.00
5126;BME280;63008;53.112;8.896;2023-03-13T02:32:20;99887.00;;;8.18;100.00
5126;BME280;63008;53.112;8.896;2023-03-13T02:34:27;99880.59;;;8.14;100.00
5126;BME280;63008;53.112;8.896;2023-03-13T02:36:30;99879.13;;;8.17;100.00
5126;BME280;63008;53.112;8.896;2023-03-13T02:38:34;99872.06;;;8.16;100.00
5126;BME280;63008;53.112;8.896;2023-03-13T02:40:39;99863.84;;;8.16;100.00
5126;BME280;63008;53.112;8.896;2023-03-13T02:42:43;99861.81;;;8.13;100.00
5126;BME280;63008;53.112;8.896;2023-03-13T02:44:46;99853.72;;;8.16;100.00
5126;BME280;63008;53.112;8.896;2023-03-13T02:46:49;99842.00;;;8.16;100.00
5126;BME280;63008;53.112;8.896;2023-03-13T02:48:54;99842.78;;;8.16;100.00
5126;BME280;63008;53.112;8.896;2023-03-13T02:50:55;99835.41;;;8.17;100.00
5126;BME280;63008;53.112;8.896;2023-03-13T02:53:00;99829.94;;;8.17;100.00
5126;BME280;63008;53.112;8.896;2023-03-13T02:55:15;99829.13;;;8.16;100.00
5126;BME280;63008;53.112;8.896;2023-03-13T02:57:22;99833.00;;;8.15;100.00
5126;BME280;63008;53.112;8.896;2023-03-13T02:59:23;99824.00;;;8.15;100.00
5126;BME280;63008;53.112;8.896;2023-03-13T03:01:24;99815.75;;;8.23;100.00
5126;BME280;63008;53.112;8.896;2023-03-13T03:03:25;99809.47;;;8.23;100.00
5126;BME280;63008;53.112;8.896;2023-03-13T03:05:26;99807.41;;;8.20;100.00
5126;BME280;63008;53.112;8.896;2023-03-13T03:07:27;99799.06;;;8.16;100.00
5126;BME280;63008;53.112;8.896;2023-03-13T03:09:29;99804.22;;;8.18;100.00
5126;BME280;63008;53.112;8.896;2023-03-13T03:11:30;99802.59;;;8.17;100.00
5126;BME280;63008;53.112;8.896;2023-03-13T03:13:31;99791.34;;;8.18;100.00
5126;BME280;63008;53.112;8.896;2023-03-13T03:15:33;99784.25;;;8.17;100.00
5126;BME280;63008;53.112;8.896;2023-03-13T03:17:34;99777.56;;;8.15;100.00
5126;BME280;63008;53.112;8.896;2023-03-13T03:19:35;99768.91;;;8.13;100.00
5126;BME280;63008;53.112;8.896;2023-03-13T03:21:36;99774.38;;;8.13;100.00
5126;BME280;63008;53.112;8.896;2023-03-13T03:23:37;99769.00;;;8.16;100.00
5126;BME280;63008;53.112;8.896;2023-03-13T03:25:38;99762.75;;;8.16;100.00
5126;BME280;63008;53.112;8.896;2023-03-13T03:27:39;99758.44;;;8.15;100.00
5126;BME280;63008;53.112;8.896;2023-03-13T03:29:40;99758.06;;;8.16;100.00
5126;BME280;63008;53.112;8.896;2023-03-13T03:31:41;99752.97;;;8.15;100.00
5126;BME280;63008;53.112;8.896;2023-03-13T03:33:43;99752.97;;;8.15;100.00
5126;BME280;63008;53.112;8.896;2023-03-13T03:35:44;99738.50;;;8.14;100.00
5126;BME280;63008;53.112;8.896;2023-03-13T03:37:45;99738.94;;;8.16;100.00
5126;BME280;63008;53.112;8.896;2023-03-13T03:39:46;99737.81;;;8.17;100.00
5126;BME280;63008;53.112;8.896;2023-03-13T03:41:47;99723.84;;;8.19;100.00
5126;BME280;63008;53.112;8.896;2023-03-13T03:43:48;99718.06;;;8.20;100.00
5126;BME280;63008;53.112;8.896;2023-03-13T03:45:49;99718.38;;;8.19;100.00
5126;BME280;63008;53.112;8.896;2023-03-13T03:47:50;99707.44;;;8.19;100.00
5126;BME280;63008;53.112;8.896;2023-03-13T03:49:51;99694.94;;;8.18;100.00
5126;BME280;63008;53.112;8.896;2023-03-13T03:51:52;99701.31;;;8.22;100.00
5126;BME280;63008;53.112;8.896;2023-03-13T03:53:53;99689.22;;;8.23;100.00
5126;BME280;63008;53.112;8.896;2023-03-13T03:55:54;99678.66;;;8.21;100.00
5126;BME280;63008;53.112;8.896;2023-03-13T03:57:55;99678.75;;;8.25;100.00
5126;BME280;63008;53.112;8.896;2023-03-13T03:59:56;99673.28;;;8.25;100.00
5126;BME280;63008;53.112;8.896;2023-03-13T04:01:57;99662.34;;;8.25;100.00
5126;BME280;63008;53.112;8.896;2023-03-13T04:03:58;99655.06;;;8.29;100.00
5126;BME280;63008;53.112;8.896;2023-03-13T04:05:59;99651.97;;;8.30;100.00
5126;BME280;63008;53.112;8.896;2023-03-13T04:08:00;99650.84;;;8.31;100.00
5126;BME280;63008;53.112;8.896;2023-03-13T04:10:02;99641.41;;;8.29;100.00
5126;BME280;63008;53.112;8.896;2023-03-13T04:12:04;99645.72;;;8.30;100.00
5126;BME280;63008;53.112;8.896;2023-03-13T04:14:05;99639.66;;;8.36;100.00
5126;BME280;63008;53.112;8.896;2023-03-13T04:16:07;99635.31;;;8.35;100.00
5126;BME280;63008;53.112;8.896;2023-03-13T04:18:08;99626.00;;;8.36;100.00
5126;BME280;63008;53.112;8.896;2023-03-13T04:20:10;99631.13;;;8.38;100.00
5126;BME280;63008;53.112;8.896;2023-03-13T04:22:13;99610.72;;;8.35;100.00
5126;BME280;63008;53.112;8.896;2023-03-13T04:24:14;99614.03;;;8.41;100.00
5126;BME280;63008;53.112;8.896;2023-03-13T04:26:15;99606.38;;;8.46;100.00
5126;BME280;63008;53.112;8.896;2023-03-13T04:28:16;99602.88;;;8.46;100.00
5126;BME280;63008;53.112;8.896;2023-03-13T04:30:17;99600.13;;;8.46;100.00
5126;BME280;63008;53.112;8.896;2023-03-13T04:32:18;99592.38;;;8.48;100.00
5126;BME280;63008;53.112;8.896;2023-03-13T04:34:19;99584.16;;;8.48;100.00
5126;BME280;63008;53.112;8.896;2023-03-13T04:36:20;99576.41;;;8.50;100.00
5126;BME280;63008;53.112;8.896;2023-03-13T04:38:21;99562.81;;;8.53;100.00
5126;BME280;63008;53.112;8.896;2023-03-13T04:40:22;99559.75;;;8.55;100.00
5126;BME280;63008;53.112;8.896;2023-03-13T04:42:26;99548.81;;;8.55;100.00
5126;BME280;63008;53.112;8.896;2023-03-13T04:44:27;99544.94;;;8.56;100.00
5126;BME280;63008;53.112;8.896;2023-03-13T04:46:28;99543.09;;;8.60;100.00
5126;BME280;63008;53.112;8.896;2023-03-13T04:48:29;99547.06;;;8.62;100.00
5126;BME280;63008;53.112;8.896;2023-03-13T04:50:30;99539.19;;;8.61;100.00
5126;BME280;63008;53.112;8.896;2023-03-13T04:52:31;99537.72;;;8.63;100.00
5126;BME280;63008;53.112;8.896;2023-03-13T04:54:32;99530.84;;;8.69;100.00
5126;BME280;63008;53.112;8.896;2023-03-13T04:56:33;99537.88;;;8.70;100.00
5126;BME280;63008;53.112;8.896;2023-03-13T04:58:34;99539.84;;;8.70;100.00
5126;BME280;63008;53.112;8.896;2023-03-13T05:00:35;99533.66;;;8.73;100.00
5126;BME280;63008;53.112;8.896;2023-03-13T05:02:36;99532.41;;;8.70;100.00
5126;BME280;63008;53.112;8.896;2023-03-13T05:04:37;99525.91;;;8.75;100.00
5126;BME280;63008;53.112;8.896;2023-03-13T05:06:38;99519.56;;;8.71;100.00
5126;BME280;63008;53.112;8.896;2023-03-13T05:08:39;99527.06;;;8.74;100.00
5126;BME280;63008;53.112;8.896;2023-03-13T05:10:43;99516.31;;;8.81;100.00
5126;BME280;63008;53.112;8.896;2023-03-13T05:12:44;99507.63;;;8.79;100.00
5126;BME280;63008;53.112;8.896;2023-03-13T05:14:45;99514.81;;;8.83;100.00
5126;BME280;63008;53.112;8.896;2023-03-13T05:16:46;99516.03;;;8.86;100.00
5126;BME280;63008;53.112;8.896;2023-03-13T05:18:47;99505.97;;;8.90;100.00
5126;BME280;63008;53.112;8.896;2023-03-13T05:20:48;99498.59;;;8.90;100.00
5126;BME280;63008;53.112;8.896;2023-03-13T05:22:49;99489.66;;;8.93;100.00
5126;BME280;63008;53.112;8.896;2023-03-13T05:24:50;99480.31;;;8.94;100.00
5126;BME280;63008;53.112;8.896;2023-03-13T05:26:51;99484.72;;;8.99;100.00
5126;BME280;63008;53.112;8.896;2023-03-13T05:28:52;99476.84;;;8.97;100.00
5126;BME280;63008;53.112;8.896;2023-03-13T05:30:53;99475.81;;;9.02;100.00
5126;BME280;63008;53.112;8.896;2023-03-13T05:32:54;99484.44;;;9.03;100.00
5126;BME280;63008;53.112;8.896;2023-03-13T05:34:55;99480.13;;;9.02;100.00
5126;BME280;63008;53.112;8.896;2023-03-13T05:36:56;99458.28;;;9.06;100.00
5126;BME280;63008;53.112;8.896;2023-03-13T05:38:57;99454.88;;;9.09;100.00
5126;BME280;63008;53.112;8.896;2023-03-13T05:40:58;99449.41;;;9.09;100.00
5126;BME280;63008;53.112;8.896;2023-03-13T05:42:59;99452.56;;;9.11;100.00
5126;BME280;63008;53.112;8.896;2023-03-13T05:45:00;99455.31;;;9.11;100.00
5126;BME280;63008;53.112;8.896;2023-03-13T05:47:01;99448.31;;;9.13;100.00
5126;BME280;63008;53.112;8.896;2023-03-13T05:49:02;99447.25;;;9.18;100.00
5126;BME280;63008;53.112;8.896;2023-03-13T05:51:03;99451.75;;;9.26;100.00
5126;BME280;63008;53.112;8.896;2023-03-13T05:53:04;99448.72;;;9.31;100.00
5126;BME280;63008;53.112;8.896;2023-03-13T05:55:05;99446.34;;;9.29;100.00
5126;BME280;63008;53.112;8.896;2023-03-13T05:57:06;99435.03;;;9.31;100.00
5126;BME280;63008;53.112;8.896;2023-03-13T05:59:07;99435.19;;;9.38;100.00
5126;BME280;63008;53.112;8.896;2023-03-13T06:01:10;99424.41;;;9.45;100.00
5126;BME280;63008;53.112;8.896;2023-03-13T06:03:11;99418.28;;;9.51;100.00
5126;BME280;63008;53.112;8.896;2023-03-13T06:05:12;99407.34;;;9.51;100.00
5126;BME280;63008;53.112;8.896;2023-03-13T06:07:13;99408.22;;;9.55;100.00
5126;BME280;63008;53.112;8.896;2023-03-13T06:09:14;99419.38;;;9.66;100.00
5126;BME280;63008;53.112;8.896;2023-03-13T06:11:15;99401.78;;;9.67;100.00
5126;BME280;63008;53.112;8.896;2023-03-13T06:13:16;99396.09;;;9.75;100.00
5126;BME280;63008;53.112;8.896;2023-03-13T06:15:17;99390.22;;;9.77;100.00
5126;BME280;63008;53.112;8.896;2023-03-13T06:17:18;99389.88;;;9.78;100.00
5126;BME280;63008;53.112;8.896;2023-03-13T06:19:19;99386.38;;;9.78;100.00
5126;BME280;63008;53.112;8.896;2023-03-13T06:21:22;99378.63;;;9.83;100.00
5126;BME280;63008;53.112;8.896;2023-03-13T06:23:23;99382.69;;;9.89;100.00
5126;BME280;63008;53.112;8.896;2023-03-13T06:25:24;99374.81;;;9.88;100.00
5126;BME280;63008;53.112;8.896;2023-03-13T06:27:25;99389.00;;;9.93;100.00
5126;BME280;63008;53.112;8.896;2023-03-13T06:29:26;99382.53;;;10.01;100.00
5126;BME280;63008;53.112;8.896;2023-03-13T06:31:27;99364.16;;;10.02;100.00
5126;BME280;63008;53.112;8.896;2023-03-13T06:33:28;99370.34;;;9.99;100.00
5126;BME280;63008;53.112;8.896;2023-03-13T06:35:29;99360.16;;;9.99;100.00
5126;BME280;63008;53.112;8.896;2023-03-13T06:37:30;99361.03;;;10.03;100.00
5126;BME280;63008;53.112;8.896;2023-03-13T06:39:31;99368.97;;;10.08;100.00
5126;BME280;63008;53.112;8.896;2023-03-13T06:41:32;99358.44;;;10.10;100.00
5126;BME280;63008;53.112;8.896;2023-03-13T06:43:33;99352.28;;;10.17;100.00
5126;BME280;63008;53.112;8.896;2023-03-13T06:45:35;99353.78;;;10.14;100.00
5126;BME280;63008;53.112;8.896;2023-03-13T06:47:36;99353.47;;;10.19;100.00
5126;BME280;63008;53.112;8.896;2023-03-13T06:49:37;99351.91;;;10.18;100.00
5126;BME280;63008;53.112;8.896;2023-03-13T06:51:41;99358.31;;;10.26;100.00
5126;BME280;63008;53.112;8.896;2023-03-13T06:53:42;99348.56;;;10.28;100.00
5126;BME280;63008;53.112;8.896;2023-03-13T06:55:43;99354.16;;;10.35;100.00
5126;BME280;63008;53.112;8.896;2023-03-13T06:57:49;99335.38;;;10.37;100.00
5126;BME280;63008;53.112;8.896;2023-03-13T06:59:50;99337.09;;;10.45;100.00
5126;BME280;63008;53.112;8.896;2023-03-13T07:01:51;99350.06;;;10.48;100.00
5126;BME280;63008;53.112;8.896;2023-03-13T07:03:52;99323.06;;;10.50;100.00
5126;BME280;63008;53.112;8.896;2023-03-13T07:05:57;99347.88;;;10.57;100.00
5126;BME280;63008;53.112;8.896;2023-03-13T07:07:58;99338.94;;;10.64;100.00
5126;BME280;63008;53.112;8.896;2023-03-13T07:09:59;99344.50;;;10.67;100.00
5126;BME280;63008;53.112;8.896;2023-03-13T07:12:00;99340.66;;;10.72;100.00
5126;BME280;63008;53.112;8.896;2023-03-13T07:14:03;99344.97;;;10.73;100.00
5126;BME280;63008;53.112;8.896;2023-03-13T07:16:06;99339.56;;;10.76;100.00
5126;BME280;63008;53.112;8.896;2023-03-13T07:18:07;99328.25;;;10.81;100.00
5126;BME280;63008;53.112;8.896;2023-03-13T07:20:09;99319.63;;;10.82;100.00
5126;BME280;63008;53.112;8.896;2023-03-13T07:22:10;99329.25;;;10.95;100.00
5126;BME280;63008;53.112;8.896;2023-03-13T07:24:11;99333.56;;;10.96;100.00
5126;BME280;63008;53.112;8.896;2023-03-13T07:26:14;99327.31;;;10.96;100.00
5126;BME280;63008;53.112;8.896;2023-03-13T07:28:15;99329.66;;;10.97;100.00
5126;BME280;63008;53.112;8.896;2023-03-13T07:30:16;99338.38;;;11.03;100.00
5126;BME280;63008;53.112;8.896;2023-03-13T07:32:17;99334.56;;;11.11;100.00
5126;BME280;63008;53.112;8.896;2023-03-13T07:34:18;99322.44;;;11.15;100.00
5126;BME280;63008;53.112;8.896;2023-03-13T07:36:19;99333.50;;;11.19;100.00
5126;BME280;63008;53.112;8.896;2023-03-13T07:38:20;99335.00;;;11.16;100.00
5126;BME280;63008;53.112;8.896;2023-03-13T07:40:21;99337.19;;;11.30;100.00
5126;BME280;63008;53.112;8.896;2023-03-13T07:42:22;99336.09;;;11.38;100.00
5126;BME280;63008;53.112;8.896;2023-03-13T07:44:23;99330.66;;;11.41;100.00
5126;BME280;63008;53.112;8.896;2023-03-13T07:46:24;99327.19;;;11.48;100.00
5126;BME280;63008;53.112;8.896;2023-03-13T07:48:30;99331.53;;;11.49;100.00
5126;BME280;63008;53.112;8.896;2023-03-13T07:50:31;99310.38;;;11.53;100.00
5126;BME280;63008;53.112;8.896;2023-03-13T07:52:32;99323.44;;;11.59;100.00
5126;BME280;63008;53.112;8.896;2023-03-13T07:54:33;99323.91;;;11.68;100.00
5126;BME280;63008;53.112;8.896;2023-03-13T07:56:34;99331.34;;;11.64;100.00
5126;BME280;63008;53.112;8.896;2023-03-13T07:58:37;99338.88;;;11.71;100.00
5126;BME280;63008;53.112;8.896;2023-03-13T08:00:38;99333.75;;;11.69;100.00
5126;BME280;63008;53.112;8.896;2023-03-13T08:02:39;99336.13;;;11.71;100.00
5126;BME280;63008;53.112;8.896;2023-03-13T08:04:40;99326.34;;;11.73;100.00
5126;BME280;63008;53.112;8.896;2023-03-13T08:06:41;99329.91;;;11.77;100.00
5126;BME280;63008;53.112;8.896;2023-03-13T08:08:42;99331.59;;;11.89;100.00
5126;BME280;63008;53.112;8.896;2023-03-13T08:10:43;99333.34;;;12.04;100.00
5126;BME280;63008;53.112;8.896;2023-03-13T08:12:44;99323.91;;;12.05;100.00
5126;BME280;63008;53.112;8.896;2023-03-13T08:14:45;99326.31;;;12.06;100.00
5126;BME280;63008;53.112;8.896;2023-03-13T08:16:46;99323.97;;;12.08;100.00
5126;BME280;63008;53.112;8.896;2023-03-13T08:18:51;99313.78;;;12.12;100.00
5126;BME280;63008;53.112;8.896;2023-03-13T08:20:52;99320.06;;;12.13;100.00
5126;BME280;63008;53.112;8.896;2023-03-13T08:22:54;99310.63;;;12.14;100.00
5126;BME280;63008;53.112;8.896;2023-03-13T08:24:55;99320.44;;;12.11;100.00
5126;BME280;63008;53.112;8.896;2023-03-13T08:26:56;99300.44;;;12.14;100.00
5126;BME280;63008;53.112;8.896;2023-03-13T08:29:03;99302.75;;;12.09;100.00
5126;BME280;63008;53.112;8.896;2023-03-13T08:31:18;99300.34;;;12.04;100.00
5126;BME280;63008;53.112;8.896;2023-03-13T08:33:20;99307.88;;;12.10;100.00
5126;BME280;63008;53.112;8.896;2023-03-13T08:35:21;99301.56;;;12.06;100.00
5126;BME280;63008;53.112;8.896;2023-03-13T08:37:22;99302.75;;;12.09;100.00
5126;BME280;63008;53.112;8.896;2023-03-13T08:39:22;99302.75;;;12.09;100.00
5126;BME280;63008;53.112;8.896;2023-03-13T08:41:25;99309.41;;;12.08;100.00
5126;BME280;63008;53.112;8.896;2023-03-13T08:43:28;99304.72;;;12.12;100.00
5126;BME280;63008;53.112;8.896;2023-03-13T08:45:29;99310.22;;;12.12;100.00
5126;BME280;63008;53.112;8.896;2023-03-13T08:47:30;99310.22;;;12.12;100.00
5126;BME280;63008;53.112;8.896;2023-03-13T08:49:31;99307.47;;;12.12;100.00
5126;BME280;63008;53.112;8.896;2023-03-13T08:51:33;99304.34;;;12.13;100.00
5126;BME280;63008;53.112;8.896;2023-03-13T08:53:35;99313.50;;;12.24;100.00
5126;BME280;63008;53.112;8.896;2023-03-13T08:55:37;99314.69;;;12.27;100.00
5126;BME280;63008;53.112;8.896;2023-03-13T08:57:38;99308.00;;;12.24;100.00
5126;BME280;63008;53.112;8.896;2023-03-13T08:59:39;99324.16;;;12.29;100.00
5126;BME280;63008;53.112;8.896;2023-03-13T09:01:42;99315.13;;;12.32;100.00
5126;BME280;63008;53.112;8.896;2023-03-13T09:03:44;99310.47;;;12.40;100.00
5126;BME280;63008;53.112;8.896;2023-03-13T09:05:44;99311.66;;;12.39;100.00
5126;BME280;63008;53.112;8.896;2023-03-13T09:07:47;99314.00;;;12.37;100.00
5126;BME280;63008;53.112;8.896;2023-03-13T09:09:48;99312.47;;;12.43;100.00
5126;BME280;63008;53.112;8.896;2023-03-13T09:11:49;99314.84;;;12.48;100.00
5126;BME280;63008;53.112;8.896;2023-03-13T09:13:50;99323.53;;;12.50;100.00
5126;BME280;63008;53.112;8.896;2023-03-13T09:15:59;99323.09;;;12.44;100.00
5126;BME280;63008;53.112;8.896;2023-03-13T09:18:00;99321.94;;;12.49;100.00
5126;BME280;63008;53.112;8.896;2023-03-13T09:20:01;99321.19;;;12.52;100.00
5126;BME280;63008;53.112;8.896;2023-03-13T09:22:02;99309.03;;;12.56;100.00
5126;BME280;63008;53.112;8.896;2023-03-13T09:24:03;99309.44;;;12.58;100.00
5126;BME280;63008;53.112;8.896;2023-03-13T09:26:04;99311.81;;;12.60;100.00
5126;BME280;63008;53.112;8.896;2023-03-13T09:28:05;99310.22;;;12.59;100.00
5126;BME280;63008;53.112;8.896;2023-03-13T09:30:07;99316.09;;;12.57;100.00
5126;BME280;63008;53.112;8.896;2023-03-13T09:32:09;99314.13;;;12.54;100.00
5126;BME280;63008;53.112;8.896;2023-03-13T09:34:10;99304.28;;;12.53;100.00
5126;BME280;63008;53.112;8.896;2023-03-13T09:36:11;99330.22;;;12.52;100.00
5126;BME280;63008;53.112;8.896;2023-03-13T09:38:12;99307.81;;;12.50;100.00
5126;BME280;63008;53.112;8.896;2023-03-13T09:40:16;99318.81;;;12.50;100.00
5126;BME280;63008;53.112;8.896;2023-03-13T09:42:25;99315.25;;;12.50;100.00
5126;BME280;63008;53.112;8.896;2023-03-13T09:44:48;99307.81;;;12.50;100.00
5126;BME280;63008;53.112;8.896;2023-03-13T09:48:59;99324.03;;;12.66;100.00
5126;BME280;63008;53.112;8.896;2023-03-13T09:53:33;99332.00;;;12.77;100.00
5126;BME280;63008;53.112;8.896;2023-03-13T09:55:40;99320.25;;;12.84;99.51
5126;BME280;63008;53.112;8.896;2023-03-13T09:59:57;99317.03;;;13.43;95.30
5126;BME280;63008;53.112;8.896;2023-03-13T10:01:59;99321.47;;;13.68;93.15
5126;BME280;63008;53.112;8.896;2023-03-13T10:06:24;99302.19;;;13.65;93.85
5126;BME280;63008;53.112;8.896;2023-03-13T10:08:31;99304.09;;;13.61;93.33
5126;BME280;63008;53.112;8.896;2023-03-13T10:12:50;99297.19;;;14.23;90.39
5126;BME280;63008;53.112;8.896;2023-03-13T10:15:36;99309.00;;;14.48;87.00
5126;BME280;63008;53.112;8.896;2023-03-13T10:17:39;99291.66;;;14.51;86.05
5126;BME280;63008;53.112;8.896;2023-03-13T10:19:41;99303.84;;;14.77;86.15
5126;BME280;63008;53.112;8.896;2023-03-13T10:21:47;99307.41;;;14.74;84.62
5126;BME280;63008;53.112;8.896;2023-03-13T10:23:59;99281.41;;;14.51;85.84
5126;BME280;63008;53.112;8.896;2023-03-13T10:26:02;99296.78;;;14.31;85.06
5126;BME280;63008;53.112;8.896;2023-03-13T10:28:04;99302.69;;;14.26;84.75
5126;BME280;63008;53.112;8.896;2023-03-13T10:30:08;99291.25;;;14.10;85.31
5126;BME280;63008;53.112;8.896;2023-03-13T10:32:17;99298.31;;;14.08;86.65
5126;BME280;63008;53.112;8.896;2023-03-13T10:34:18;99284.94;;;14.20;84.32
5126;BME280;63008;53.112;8.896;2023-03-13T10:36:19;99282.16;;;14.13;85.65
5126;BME280;63008;53.112;8.896;2023-03-13T10:38:20;99291.25;;;14.10;85.02
5126;BME280;63008;53.112;8.896;2023-03-13T10:40:23;99294.75;;;14.07;85.01
5126;BME280;63008;53.112;8.896;2023-03-13T10:42:30;99287.28;;;14.11;84.57
5126;BME280;63008;53.112;8.896;2023-03-13T10:44:33;99291.59;;;14.05;85.32
5126;BME280;63008;53.112;8.896;2023-03-13T10:46:39;99282.16;;;14.13;84.27
5126;BME280;63008;53.112;8.896;2023-03-13T10:48:40;99296.31;;;14.08;84.79
5126;BME280;63008;53.112;8.896;2023-03-13T10:50:44;99299.09;;;14.08;85.58
5126;BME280;63008;53.112;8.896;2023-03-13T10:52:47;99301.84;;;14.01;86.83
5126;BME280;63008;53.112;8.896;2023-03-13T10:54:48;99323.94;;;14.05;86.53
5126;BME280;63008;53.112;8.896;2023-03-13T10:56:51;99288.84;;;14.09;87.01
5126;BME280;63008;53.112;8.896;2023-03-13T10:58:56;99297.19;;;14.37;86.47
5126;BME280;63008;53.112;8.896;2023-03-13T11:01:13;99287.72;;;14.34;86.50
5126;BME280;63008;53.112;8.896;2023-03-13T11:03:22;99286.16;;;14.33;85.91
5126;BME280;63008;53.112;8.896;2023-03-13T11:05:31;99311.78;;;14.41;84.86
5126;BME280;63008;53.112;8.896;2023-03-13T11:07:37;99292.06;;;14.49;83.32
5126;BME280;63008;53.112;8.896;2023-03-13T11:09:38;99296.38;;;14.71;82.44